Harlingen, Netherlands
Current Conditions -  °F | °C
As of 12:55 AM on Thursday 29 Jan 2015 (Local Time) from EHLW Reporting Station
Overcast Overcast  
Wind Chill: 29°   Ceiling: 4400
Heat Index: 39°   Visibility: 6mi
Dew Point: 30°   Wind: 22mph
Humidity: 70%   Direction: 260°W
Pressure: 29.23"   Gusts: 37mph
Location:  53.17°N, 5.42°E
Report Text: EHLW 282355Z AUTO 26019G32KT 9999 FEW033 BKN044 OVC048 04/M01 Q0990 BLU
Loading
Personal Weather Stations






























Interactive Weather Map New forecast layout! Learn more

10-Day Weather Forecast

Advertisements
Track Severe Weather on mobile